createdAt,value
2022-10-03T00:01:43.322Z,6.45
2022-10-03T00:07:13.526Z,6.65
2022-10-03T00:12:38.020Z,6.05
2022-10-03T00:17:53.418Z,7.07
2022-10-03T00:23:02.816Z,7.38
2022-10-03T00:28:41.791Z,8.25
2022-10-03T00:33:55.267Z,7.68
2022-10-03T00:39:08.621Z,7.65
2022-10-03T00:44:38.659Z,7.88
2022-10-03T00:49:58.864Z,8.57
2022-10-03T00:55:12.414Z,9.10
2022-10-03T01:00:27.702Z,9.93
2022-10-03T01:05:51.876Z,10.45
2022-10-03T01:11:05.968Z,8.95
2022-10-03T01:16:27.455Z,10.05
2022-10-03T01:21:53.741Z,10.63
2022-10-03T01:27:03.434Z,9.80
2022-10-03T01:32:31.335Z,10.15
2022-10-03T01:37:47.244Z,9.63
2022-10-03T01:43:11.854Z,10.18
2022-10-03T01:48:43.851Z,10.43
2022-10-03T01:53:54.491Z,11.05
2022-10-03T01:59:30.915Z,10.63
2022-10-03T02:04:45.581Z,10.95
2022-10-03T02:10:19.187Z,10.43
2022-10-03T02:15:29.798Z,11.45
2022-10-03T02:20:45.481Z,10.30
2022-10-03T02:26:17.601Z,9.95
2022-10-03T02:31:43.838Z,10.60
2022-10-03T02:37:20.440Z,11.57
2022-10-03T02:42:39.081Z,12.60
2022-10-03T02:48:32.105Z,11.98
2022-10-03T02:54:20.262Z,12.50
2022-10-03T02:59:59.323Z,12.40
2022-10-03T03:05:06.725Z,12.63
2022-10-03T03:10:34.466Z,14.10
2022-10-03T03:15:38.816Z,12.93
2022-10-03T03:21:18.118Z,11.73
2022-10-03T03:26:54.961Z,11.32
2022-10-03T03:31:56.598Z,11.48
2022-10-03T03:37:11.009Z,12.30
2022-10-03T03:42:34.779Z,12.65
2022-10-03T03:47:50.466Z,14.43
2022-10-03T03:53:37.094Z,13.30
2022-10-03T03:58:45.113Z,13.55
2022-10-03T04:04:18.256Z,12.73
2022-10-03T04:15:11.378Z,13.77
2022-10-03T04:20:38.397Z,13.73
2022-10-03T04:26:04.970Z,14.82
2022-10-03T04:31:27.854Z,14.80
2022-10-03T04:37:06.046Z,15.80
2022-10-03T04:42:21.283Z,13.80
2022-10-03T04:47:39.197Z,14.27
2022-10-03T04:52:46.668Z,14.10
2022-10-03T04:58:24.891Z,13.00
2022-10-03T05:04:17.666Z,12.48
2022-10-03T05:09:35.932Z,14.50
2022-10-03T05:14:59.738Z,12.90
2022-10-03T05:20:21.978Z,13.55
2022-10-03T05:25:39.478Z,13.30
2022-10-03T05:30:58.087Z,12.32
2022-10-03T05:36:06.102Z,13.80
2022-10-03T05:41:26.131Z,12.98
2022-10-03T05:46:40.069Z,12.15
2022-10-03T05:52:03.894Z,12.00
2022-10-03T05:57:36.300Z,10.27
2022-10-03T06:02:54.074Z,11.37
2022-10-03T06:08:18.941Z,13.70
2022-10-03T06:13:20.635Z,13.75
2022-10-03T06:18:42.370Z,13.88
2022-10-03T06:24:18.400Z,15.95
2022-10-03T06:29:58.828Z,16.40
2022-10-03T06:35:37.157Z,17.15
2022-10-03T06:40:57.627Z,17.55
2022-10-03T06:46:27.068Z,17.13
2022-10-03T06:51:56.541Z,17.70
2022-10-03T06:57:24.125Z,17.73
2022-10-03T07:02:44.009Z,17.48
2022-10-03T07:08:03.040Z,17.73
2022-10-03T07:13:50.667Z,18.42
2022-10-03T07:19:07.319Z,15.23
2022-10-03T07:24:25.826Z,17.23
2022-10-03T07:29:30.537Z,15.48
2022-10-03T07:35:05.931Z,14.30
2022-10-03T07:40:59.391Z,12.05
2022-10-03T07:51:13.235Z,12.07
2022-10-03T07:56:36.754Z,11.27
2022-10-03T08:02:12.322Z,11.70
2022-10-03T08:07:51.284Z,13.32
2022-10-03T08:12:56.415Z,14.10
2022-10-03T08:18:30.483Z,13.10
2022-10-03T08:23:53.858Z,14.13
2022-10-03T08:29:43.529Z,12.40
2022-10-03T08:35:23.830Z,7.60
2022-10-03T08:40:53.678Z,5.80
2022-10-03T08:45:55.437Z,5.70
2022-10-03T08:51:46.826Z,5.93
2022-10-03T08:56:58.362Z,5.72
2022-10-03T09:02:38.798Z,5.35
2022-10-03T09:08:15.105Z,4.93
2022-10-03T09:13:55.296Z,3.50
2022-10-03T09:19:09.091Z,3.53
2022-10-03T09:24:28.977Z,2.60
2022-10-03T09:30:08.006Z,3.60
2022-10-03T09:35:33.284Z,2.80
2022-10-03T09:40:53.716Z,3.13
2022-10-03T09:45:58.454Z,3.40
2022-10-03T09:51:21.811Z,2.50
2022-10-03T09:56:34.850Z,2.75
2022-10-03T10:01:39.338Z,3.50
2022-10-03T10:07:12.041Z,2.20
2022-10-03T10:12:32.654Z,3.08
2022-10-03T10:18:11.890Z,2.55
2022-10-03T10:23:36.328Z,2.22
2022-10-03T10:29:03.114Z,2.00
2022-10-03T10:34:30.364Z,2.47
2022-10-03T10:39:56.933Z,3.60
2022-10-03T10:45:36.086Z,3.30
2022-10-03T10:51:05.119Z,3.60
2022-10-03T10:56:44.382Z,3.28
2022-10-03T11:01:55.437Z,3.60
2022-10-03T11:07:28.879Z,3.58
2022-10-03T11:12:52.599Z,3.75
2022-10-03T11:18:32.241Z,3.17
2022-10-03T11:23:40.014Z,3.00
2022-10-03T11:29:40.862Z,2.80
2022-10-03T11:35:20.776Z,3.00
2022-10-03T11:40:57.863Z,2.83
2022-10-03T11:46:22.981Z,3.28
2022-10-03T11:51:51.541Z,2.45
2022-10-03T11:57:06.495Z,2.67
2022-10-03T12:08:22.753Z,2.53
2022-10-03T12:13:39.435Z,2.20
2022-10-03T12:18:42.709Z,2.30
2022-10-03T12:23:55.902Z,2.47
2022-10-03T12:28:58.882Z,2.65
2022-10-03T12:34:37.728Z,2.55
2022-10-03T12:40:10.468Z,2.40
2022-10-03T12:45:12.126Z,2.40
2022-10-03T12:50:32.163Z,2.30
2022-10-03T12:55:38.226Z,2.40
2022-10-03T13:00:55.834Z,2.25
2022-10-03T13:06:19.371Z,2.25
2022-10-03T13:11:25.862Z,2.63
2022-10-03T13:16:43.655Z,2.17
2022-10-03T13:22:18.175Z,1.88
2022-10-03T13:27:33.092Z,1.92
2022-10-03T13:32:34.861Z,1.80
2022-10-03T13:37:59.485Z,1.60
2022-10-03T13:43:03.471Z,2.03
2022-10-03T13:48:11.228Z,1.90
2022-10-03T13:53:37.973Z,1.67
2022-10-03T13:58:39.779Z,1.80
2022-10-03T14:04:01.842Z,1.90
2022-10-03T14:09:31.410Z,1.90
2022-10-03T14:15:00.315Z,2.00
2022-10-03T14:20:10.946Z,2.00
2022-10-03T14:25:47.815Z,1.92
2022-10-03T14:31:05.981Z,1.73
2022-10-03T14:36:14.575Z,2.00
2022-10-03T14:41:23.628Z,2.08
2022-10-03T14:46:29.089Z,1.77
2022-10-03T14:51:30.802Z,1.80
2022-10-03T14:56:41.258Z,2.00
2022-10-03T15:01:54.813Z,1.55
2022-10-03T15:07:00.294Z,1.90
2022-10-03T15:12:08.318Z,1.80
2022-10-03T15:17:22.866Z,2.15
2022-10-03T15:22:35.701Z,1.85
2022-10-03T15:27:41.881Z,1.65
2022-10-03T15:32:47.203Z,1.58
2022-10-03T15:37:49.804Z,1.70
2022-10-03T15:43:02.986Z,2.22
2022-10-03T15:48:16.441Z,1.85
2022-10-03T15:53:36.937Z,1.90
2022-10-03T15:59:04.166Z,2.22
2022-10-03T16:04:21.333Z,2.70
2022-10-03T16:09:58.481Z,1.95
2022-10-03T16:15:34.168Z,2.30
2022-10-03T16:20:53.832Z,2.00
2022-10-03T16:26:00.318Z,1.70
2022-10-03T16:31:27.108Z,2.15
2022-10-03T16:36:32.416Z,2.10
2022-10-03T16:41:40.672Z,1.80
2022-10-03T16:46:45.028Z,2.03
2022-10-03T16:51:56.808Z,2.00
2022-10-03T16:57:00.939Z,2.17
2022-10-03T17:02:12.667Z,2.67
2022-10-03T17:07:17.981Z,3.00
2022-10-03T17:12:27.835Z,3.40
2022-10-03T17:17:39.417Z,3.20
2022-10-03T17:22:45.564Z,3.30
2022-10-03T17:27:50.359Z,3.35
2022-10-03T17:33:01.612Z,3.63
2022-10-03T17:38:48.817Z,3.08
2022-10-03T17:44:18.846Z,3.42
2022-10-03T17:49:55.224Z,3.70
2022-10-03T17:55:02.793Z,4.55
2022-10-03T18:00:17.861Z,3.05
2022-10-03T18:05:27.251Z,3.45
2022-10-03T18:10:34.367Z,3.30
2022-10-03T18:16:19.067Z,3.60
2022-10-03T18:21:32.584Z,2.83
2022-10-03T18:31:55.467Z,2.50
2022-10-03T18:37:36.477Z,2.55
2022-10-03T18:42:39.263Z,3.03
2022-10-03T18:52:52.626Z,3.83
2022-10-03T18:58:11.555Z,3.28
2022-10-03T19:03:16.600Z,3.65
2022-10-03T19:08:20.457Z,3.50
2022-10-03T19:13:43.840Z,3.75
2022-10-03T19:18:57.758Z,2.60
2022-10-03T19:24:13.047Z,2.50
2022-10-03T19:29:34.379Z,2.60
2022-10-03T19:34:43.506Z,2.88
2022-10-03T19:39:45.522Z,3.03
2022-10-03T19:44:47.385Z,2.70
2022-10-03T19:50:21.014Z,2.55
2022-10-03T19:55:37.107Z,2.50
2022-10-03T20:00:40.330Z,2.38
2022-10-03T20:05:56.051Z,3.00
2022-10-03T20:11:06.182Z,2.78
2022-10-03T20:16:15.312Z,2.90
2022-10-03T20:21:25.994Z,2.70
2022-10-03T20:26:45.297Z,3.90
2022-10-03T20:31:47.813Z,2.60
2022-10-03T20:36:55.403Z,2.53
2022-10-03T20:42:10.015Z,2.92
2022-10-03T20:47:42.822Z,2.90
2022-10-03T20:52:51.677Z,3.10
2022-10-03T20:58:05.735Z,2.63
2022-10-03T21:03:15.600Z,2.92
2022-10-03T21:08:40.299Z,3.10
2022-10-03T21:13:52.350Z,3.63
2022-10-03T21:19:01.552Z,3.23
2022-10-03T21:24:03.997Z,3.50
2022-10-03T21:29:23.990Z,3.63
2022-10-03T21:34:42.917Z,4.15
2022-10-03T21:40:27.975Z,3.08
2022-10-03T21:45:37.740Z,3.17
2022-10-03T21:51:17.942Z,2.50
2022-10-03T21:56:34.541Z,3.03
2022-10-03T22:01:48.300Z,3.92
2022-10-03T22:06:57.742Z,3.72
2022-10-03T22:12:02.668Z,3.53
2022-10-03T22:17:22.921Z,3.05
2022-10-03T22:22:24.583Z,3.83
2022-10-03T22:28:01.265Z,3.78
2022-10-03T22:33:21.415Z,4.20
2022-10-03T22:38:36.251Z,2.55
2022-10-03T22:43:38.772Z,2.38
2022-10-03T22:48:50.090Z,3.10
2022-10-03T22:53:58.147Z,3.38
2022-10-03T22:59:02.552Z,3.28
2022-10-03T23:04:07.919Z,3.35
2022-10-03T23:09:23.844Z,3.45
2022-10-03T23:14:30.654Z,4.10
2022-10-03T23:20:05.350Z,3.92
2022-10-03T23:25:17.444Z,3.35
2022-10-03T23:30:20.027Z,3.67
2022-10-03T23:35:31.030Z,2.10
2022-10-03T23:40:44.851Z,2.35
2022-10-03T23:45:49.421Z,2.22
2022-10-03T23:51:00.430Z,2.60
2022-10-03T23:56:04.567Z,3.38
